createdAt,value
2022-12-29T00:55:37.183Z,533.00
2022-12-29T00:56:38.118Z,533.00
2022-12-29T00:57:38.091Z,532.00
2022-12-29T00:58:38.056Z,532.00
2022-12-29T00:59:38.029Z,532.00
2022-12-29T01:00:38.068Z,530.00
2022-12-29T01:01:38.185Z,531.00
2022-12-29T01:02:38.028Z,530.00
2022-12-29T01:03:37.926Z,530.00
2022-12-29T01:04:37.890Z,526.00
2022-12-29T01:05:37.856Z,526.00
2022-12-29T01:06:37.841Z,526.00
2022-12-29T01:07:37.800Z,525.00
2022-12-29T01:08:37.768Z,525.00
2022-12-29T01:09:37.722Z,523.00
2022-12-29T01:10:37.693Z,523.00
2022-12-29T01:11:37.693Z,523.00
2022-12-29T01:12:37.634Z,525.00
2022-12-29T01:13:37.609Z,524.00
2022-12-29T01:14:37.561Z,524.00
2022-12-29T01:15:37.529Z,523.00
2022-12-29T01:16:37.610Z,523.00
2022-12-29T01:17:37.464Z,522.00
2022-12-29T01:18:37.442Z,526.00
2022-12-29T01:19:37.401Z,526.00
2022-12-29T01:20:37.365Z,527.00
2022-12-29T01:21:37.332Z,526.00
2022-12-29T01:22:37.319Z,525.00
2022-12-29T01:23:37.268Z,526.00
2022-12-29T01:24:37.225Z,524.00
2022-12-29T01:25:37.192Z,529.00
2022-12-29T01:26:37.157Z,529.00
2022-12-29T01:27:37.149Z,527.00
2022-12-29T01:28:37.090Z,528.00
2022-12-29T01:29:37.056Z,526.00
2022-12-29T01:30:37.025Z,525.00
2022-12-29T01:31:37.093Z,524.00
2022-12-29T01:32:36.960Z,523.00
2022-12-29T01:33:36.930Z,523.00
2022-12-29T01:34:36.905Z,526.00
2022-12-29T01:35:36.864Z,527.00
2022-12-29T01:36:36.833Z,527.00
2022-12-29T01:37:36.792Z,525.00
2022-12-29T01:38:36.761Z,525.00
2022-12-29T01:39:36.732Z,526.00
2022-12-29T01:40:36.711Z,526.00
2022-12-29T01:41:36.673Z,528.00
2022-12-29T01:42:36.639Z,530.00
2022-12-29T01:43:36.633Z,527.00
2022-12-29T01:44:36.580Z,526.00
2022-12-29T01:45:36.639Z,528.00
2022-12-29T01:46:36.507Z,527.00
2022-12-29T01:47:36.486Z,529.00
2022-12-29T01:48:36.480Z,531.00
2022-12-29T01:49:36.413Z,530.00
2022-12-29T01:50:36.371Z,529.00
2022-12-29T01:51:36.340Z,528.00
2022-12-29T01:52:36.302Z,529.00
2022-12-29T01:53:36.280Z,529.00
2022-12-29T01:54:36.261Z,530.00
2022-12-29T01:55:36.210Z,532.00
2022-12-29T01:56:36.178Z,533.00
2022-12-29T01:57:36.142Z,535.00
2022-12-29T01:58:36.124Z,535.00
2022-12-29T01:59:36.140Z,537.00
2022-12-29T02:00:36.154Z,536.00
2022-12-29T02:01:36.216Z,534.00
2022-12-29T02:02:36.081Z,534.00
2022-12-29T02:03:36.045Z,536.00
2022-12-29T02:04:35.953Z,535.00
2022-12-29T02:05:35.921Z,534.00
2022-12-29T02:06:35.877Z,533.00
2022-12-29T02:07:35.844Z,533.00
2022-12-29T02:08:35.807Z,532.00
2022-12-29T02:09:35.769Z,531.00
2022-12-29T02:10:35.740Z,533.00
2022-12-29T02:11:35.717Z,533.00
2022-12-29T02:12:35.676Z,534.00
2022-12-29T02:13:35.630Z,537.00
2022-12-29T02:14:35.615Z,539.00
2022-12-29T02:15:35.613Z,538.00
2022-12-29T02:16:35.555Z,537.00
2022-12-29T02:17:35.528Z,536.00
2022-12-29T02:18:35.481Z,536.00
2022-12-29T02:19:35.448Z,536.00
2022-12-29T02:20:35.418Z,535.00
2022-12-29T02:21:35.377Z,534.00
2022-12-29T02:22:35.344Z,534.00
2022-12-29T02:23:35.313Z,536.00
2022-12-29T02:24:35.280Z,538.00
2022-12-29T02:25:35.244Z,538.00
2022-12-29T02:26:35.247Z,537.00
2022-12-29T02:27:35.229Z,538.00
2022-12-29T02:28:35.166Z,540.00
2022-12-29T02:29:35.116Z,538.00
2022-12-29T02:30:35.080Z,540.00
2022-12-29T02:31:35.161Z,545.00
2022-12-29T02:32:35.029Z,545.00
2022-12-29T02:33:34.994Z,546.00
2022-12-29T02:34:34.952Z,546.00
2022-12-29T02:35:34.912Z,546.00
2022-12-29T02:36:34.876Z,541.00
2022-12-29T02:37:34.847Z,542.00
2022-12-29T02:38:34.811Z,542.00
2022-12-29T02:39:34.779Z,540.00
2022-12-29T02:40:34.748Z,541.00
2022-12-29T02:41:34.719Z,543.00
2022-12-29T02:42:34.659Z,544.00
2022-12-29T02:43:34.622Z,545.00
2022-12-29T02:44:34.580Z,546.00
2022-12-29T02:45:34.584Z,546.00
2022-12-29T02:46:34.510Z,545.00
2022-12-29T02:47:34.537Z,546.00
2022-12-29T02:48:34.436Z,545.00
2022-12-29T02:49:34.417Z,544.00
2022-12-29T02:50:34.361Z,542.00
2022-12-29T02:51:34.320Z,543.00
2022-12-29T02:52:34.282Z,543.00
2022-12-29T02:53:34.244Z,544.00
2022-12-29T02:54:34.251Z,544.00
2022-12-29T02:55:34.169Z,544.00
2022-12-29T02:56:34.131Z,541.00
2022-12-29T02:57:34.098Z,540.00
2022-12-29T02:58:34.066Z,540.00
2022-12-29T02:59:34.030Z,542.00
2022-12-29T03:00:33.993Z,541.00
2022-12-29T03:01:34.109Z,542.00
2022-12-29T03:02:34.109Z,540.00
2022-12-29T03:03:33.980Z,540.00
2022-12-29T03:04:33.987Z,537.00
2022-12-29T03:05:33.833Z,537.00
2022-12-29T03:06:33.808Z,536.00
2022-12-29T03:07:33.784Z,533.00
2022-12-29T03:08:33.741Z,534.00
2022-12-29T03:09:33.739Z,535.00
2022-12-29T03:10:33.697Z,534.00
2022-12-29T03:11:33.709Z,536.00
2022-12-29T03:12:33.596Z,535.00
2022-12-29T03:13:33.559Z,533.00
2022-12-29T03:14:33.526Z,537.00
2022-12-29T03:15:33.493Z,537.00
2022-12-29T03:16:33.536Z,537.00
2022-12-29T03:17:33.434Z,539.00
2022-12-29T03:18:33.450Z,540.00
2022-12-29T03:19:33.368Z,538.00
2022-12-29T03:20:33.301Z,540.00
2022-12-29T03:21:33.265Z,542.00
2022-12-29T03:22:33.230Z,543.00
2022-12-29T03:23:33.195Z,542.00
2022-12-29T03:24:33.163Z,542.00
2022-12-29T03:25:33.117Z,540.00
2022-12-29T03:26:33.075Z,539.00
2022-12-29T03:27:33.039Z,539.00
2022-12-29T03:28:33.015Z,540.00
2022-12-29T03:29:33.049Z,538.00
2022-12-29T03:30:33.008Z,540.00
2022-12-29T03:31:32.907Z,538.00
2022-12-29T03:32:32.868Z,536.00
2022-12-29T03:33:32.894Z,537.00
2022-12-29T03:34:32.852Z,538.00
2022-12-29T03:35:32.842Z,540.00
2022-12-29T03:36:32.780Z,543.00
2022-12-29T03:37:32.701Z,543.00
2022-12-29T03:38:32.672Z,543.00
2022-12-29T03:39:32.633Z,545.00
2022-12-29T03:40:32.609Z,545.00
2022-12-29T03:41:32.567Z,543.00
2022-12-29T03:42:32.522Z,541.00
2022-12-29T03:43:32.475Z,540.00
2022-12-29T03:44:32.437Z,539.00
2022-12-29T03:45:32.434Z,538.00
2022-12-29T03:46:32.429Z,538.00
2022-12-29T03:47:32.359Z,538.00
2022-12-29T03:48:32.290Z,537.00
2022-12-29T03:49:32.250Z,536.00
2022-12-29T03:50:32.255Z,538.00
2022-12-29T03:51:32.204Z,536.00
2022-12-29T03:52:32.144Z,537.00
2022-12-29T03:53:32.102Z,535.00
2022-12-29T03:54:32.068Z,534.00
2022-12-29T03:55:32.058Z,535.00
2022-12-29T03:56:31.998Z,535.00
2022-12-29T03:57:31.971Z,536.00
2022-12-29T03:58:31.944Z,537.00
2022-12-29T03:59:31.902Z,538.00
2022-12-29T04:00:31.871Z,539.00
2022-12-29T04:01:31.930Z,538.00
2022-12-29T04:02:32.004Z,541.00
2022-12-29T04:03:31.838Z,543.00
2022-12-29T04:04:31.748Z,541.00
2022-12-29T04:05:31.718Z,542.00
2022-12-29T04:06:31.685Z,543.00
2022-12-29T04:07:31.689Z,544.00
2022-12-29T04:08:31.627Z,543.00
2022-12-29T04:09:31.592Z,545.00
2022-12-29T04:10:31.563Z,547.00
2022-12-29T04:11:33.388Z,548.00
2022-12-29T04:12:31.505Z,547.00
2022-12-29T04:13:31.471Z,549.00
2022-12-29T04:14:31.439Z,547.00
2022-12-29T04:15:31.451Z,548.00
2022-12-29T04:16:31.377Z,546.00
2022-12-29T04:17:31.347Z,545.00
2022-12-29T04:18:31.312Z,546.00
2022-12-29T04:19:31.274Z,547.00
2022-12-29T04:20:31.254Z,546.00
2022-12-29T04:21:31.216Z,547.00
2022-12-29T04:22:31.184Z,546.00
2022-12-29T04:23:31.168Z,545.00
2022-12-29T04:24:31.102Z,543.00
2022-12-29T04:25:31.063Z,543.00
2022-12-29T04:26:31.040Z,545.00
2022-12-29T04:27:31.003Z,546.00
2022-12-29T04:28:30.970Z,547.00
2022-12-29T04:29:30.933Z,546.00
2022-12-29T04:30:30.915Z,544.00
2022-12-29T04:31:31.007Z,545.00
2022-12-29T04:32:30.829Z,547.00
2022-12-29T04:33:30.795Z,545.00
2022-12-29T04:34:30.762Z,542.00
2022-12-29T04:35:30.736Z,545.00
2022-12-29T04:36:30.714Z,544.00
2022-12-29T04:37:30.663Z,544.00
2022-12-29T04:38:30.617Z,544.00
2022-12-29T04:39:30.620Z,545.00
2022-12-29T04:40:30.574Z,545.00
2022-12-29T04:41:30.541Z,544.00
2022-12-29T04:42:30.494Z,543.00
2022-12-29T04:43:30.462Z,545.00
2022-12-29T04:44:30.422Z,545.00
2022-12-29T04:45:30.396Z,547.00
2022-12-29T04:46:30.393Z,549.00
2022-12-29T04:47:30.340Z,549.00
2022-12-29T04:48:30.310Z,548.00
2022-12-29T04:49:30.279Z,548.00
2022-12-29T04:50:30.244Z,545.00
2022-12-29T04:51:30.208Z,546.00
2022-12-29T04:52:30.181Z,548.00
2022-12-29T04:53:30.134Z,550.00
2022-12-29T04:54:30.108Z,549.00
2022-12-29T04:55:30.099Z,548.00
2022-12-29T04:56:30.055Z,549.00
2022-12-29T04:57:30.003Z,548.00
2022-12-29T04:58:29.968Z,548.00
2022-12-29T04:59:29.915Z,549.00
2022-12-29T05:00:29.887Z,551.00
2022-12-29T05:01:29.973Z,553.00
2022-12-29T05:02:30.041Z,551.00
2022-12-29T05:03:29.842Z,553.00
2022-12-29T05:04:29.735Z,553.00
2022-12-29T05:05:29.714Z,553.00
2022-12-29T05:06:29.664Z,553.00
2022-12-29T05:07:29.635Z,553.00
2022-12-29T05:08:29.604Z,552.00
2022-12-29T05:09:29.572Z,550.00
2022-12-29T05:10:29.542Z,548.00
2022-12-29T05:11:29.563Z,547.00
2022-12-29T05:12:29.482Z,549.00
2022-12-29T05:13:29.441Z,550.00
2022-12-29T05:14:29.430Z,550.00
2022-12-29T05:15:29.395Z,551.00
2022-12-29T05:16:29.444Z,552.00
2022-12-29T05:17:29.314Z,557.00
2022-12-29T05:18:29.279Z,559.00
2022-12-29T05:19:29.255Z,556.00
2022-12-29T05:20:29.214Z,552.00
2022-12-29T05:21:29.183Z,551.00
2022-12-29T05:22:29.150Z,548.00
2022-12-29T05:23:29.120Z,546.00
2022-12-29T05:24:29.089Z,546.00
2022-12-29T05:25:29.061Z,545.00
2022-12-29T05:26:29.037Z,545.00
2022-12-29T05:27:29.032Z,547.00
2022-12-29T05:28:28.984Z,545.00
2022-12-29T05:29:28.937Z,545.00
2022-12-29T05:30:28.907Z,546.00
2022-12-29T05:31:28.925Z,547.00
2022-12-29T05:32:28.849Z,547.00
2022-12-29T05:33:28.819Z,546.00
2022-12-29T05:34:28.791Z,546.00
2022-12-29T05:35:28.763Z,549.00
2022-12-29T05:36:32.866Z,547.00
2022-12-29T05:37:28.693Z,549.00
2022-12-29T05:38:28.663Z,547.00
2022-12-29T05:39:28.635Z,548.00
2022-12-29T05:40:28.619Z,549.00
2022-12-29T05:41:28.577Z,551.00
2022-12-29T05:42:28.574Z,552.00
2022-12-29T05:43:28.544Z,552.00
2022-12-29T05:44:28.489Z,551.00
2022-12-29T05:45:28.517Z,550.00
2022-12-29T05:46:28.510Z,550.00
2022-12-29T05:47:28.398Z,549.00
2022-12-29T05:48:31.664Z,550.00
2022-12-29T05:49:28.354Z,553.00
2022-12-29T05:50:28.294Z,554.00
2022-12-29T05:51:28.260Z,555.00
2022-12-29T05:52:28.227Z,554.00
2022-12-29T05:53:28.197Z,551.00
2022-12-29T05:54:28.177Z,550.00
2022-12-29T05:55:28.141Z,550.00
2022-12-29T05:56:28.120Z,549.00
2022-12-29T05:57:28.064Z,550.00
2022-12-29T05:58:28.038Z,548.00
2022-12-29T05:59:28.035Z,548.00
2022-12-29T06:00:27.967Z,545.00
2022-12-29T06:01:27.987Z,544.00
2022-12-29T06:02:28.154Z,545.00
2022-12-29T06:03:28.003Z,547.00
2022-12-29T06:04:27.827Z,548.00
2022-12-29T06:05:27.796Z,547.00
2022-12-29T06:06:27.763Z,548.00
2022-12-29T06:07:27.739Z,547.00
2022-12-29T06:08:27.717Z,548.00
2022-12-29T06:09:27.674Z,548.00
2022-12-29T06:10:27.641Z,549.00
2022-12-29T06:11:27.605Z,549.00
2022-12-29T06:12:27.577Z,549.00
2022-12-29T06:13:27.540Z,547.00
2022-12-29T06:14:27.510Z,545.00
2022-12-29T06:15:27.501Z,546.00
2022-12-29T06:16:27.521Z,548.00
2022-12-29T06:17:27.410Z,546.00
2022-12-29T06:18:27.372Z,549.00
2022-12-29T06:19:27.329Z,549.00
2022-12-29T06:20:27.301Z,547.00
2022-12-29T06:21:27.272Z,546.00
2022-12-29T06:22:27.225Z,546.00
2022-12-29T06:23:27.186Z,546.00
2022-12-29T06:24:27.154Z,545.00
2022-12-29T06:25:27.110Z,543.00
2022-12-29T06:26:27.086Z,542.00
2022-12-29T06:27:27.048Z,541.00
2022-12-29T06:28:27.022Z,539.00
2022-12-29T06:29:27.003Z,540.00
2022-12-29T06:30:26.969Z,539.00
2022-12-29T06:31:27.008Z,538.00
2022-12-29T06:32:26.879Z,539.00
2022-12-29T06:33:26.849Z,541.00
2022-12-29T06:34:26.819Z,543.00
2022-12-29T06:35:26.807Z,544.00
2022-12-29T06:36:26.758Z,544.00
2022-12-29T06:37:26.720Z,546.00
2022-12-29T06:38:26.722Z,547.00
2022-12-29T06:39:26.656Z,544.00
2022-12-29T06:40:26.624Z,543.00
2022-12-29T06:41:32.007Z,542.00
2022-12-29T06:42:26.536Z,544.00
2022-12-29T06:43:26.532Z,544.00
2022-12-29T06:44:26.458Z,545.00
2022-12-29T06:45:26.418Z,545.00
2022-12-29T06:46:26.387Z,547.00
2022-12-29T06:47:26.398Z,547.00
2022-12-29T06:48:26.298Z,546.00
2022-12-29T06:49:26.261Z,548.00
2022-12-29T06:50:26.216Z,549.00
2022-12-29T06:51:26.208Z,548.00
2022-12-29T06:52:26.149Z,548.00
2022-12-29T06:53:26.120Z,550.00
2022-12-29T06:54:26.069Z,547.00
2022-12-29T06:55:26.043Z,548.00
2022-12-29T06:56:25.988Z,545.00
2022-12-29T06:57:25.955Z,546.00
2022-12-29T06:58:25.914Z,546.00
2022-12-29T06:59:25.885Z,547.00
2022-12-29T07:00:25.837Z,546.00
2022-12-29T07:01:25.950Z,546.00
2022-12-29T07:02:25.880Z,545.00
2022-12-29T07:03:25.817Z,549.00
2022-12-29T07:04:25.683Z,549.00
2022-12-29T07:05:25.643Z,548.00
2022-12-29T07:06:25.609Z,547.00
2022-12-29T07:07:25.567Z,545.00
2022-12-29T07:08:25.536Z,545.00
2022-12-29T07:09:25.497Z,546.00
2022-12-29T07:10:25.450Z,546.00
2022-12-29T07:11:25.480Z,545.00
2022-12-29T07:12:25.378Z,544.00
2022-12-29T07:13:25.341Z,546.00
2022-12-29T07:14:25.302Z,545.00
2022-12-29T07:15:25.268Z,547.00
2022-12-29T07:16:25.327Z,548.00
2022-12-29T07:17:25.198Z,548.00
2022-12-29T07:18:25.152Z,550.00
2022-12-29T07:19:25.143Z,551.00
2022-12-29T07:20:27.192Z,550.00
2022-12-29T07:21:25.054Z,548.00
2022-12-29T07:22:25.009Z,546.00
2022-12-29T07:23:24.960Z,543.00
2022-12-29T07:24:25.011Z,544.00
2022-12-29T07:25:24.888Z,541.00
2022-12-29T07:26:24.855Z,542.00
2022-12-29T07:27:24.814Z,544.00
2022-12-29T07:28:24.787Z,547.00
2022-12-29T07:29:24.753Z,545.00
2022-12-29T07:30:24.720Z,546.00
2022-12-29T07:31:24.721Z,547.00
2022-12-29T07:32:24.635Z,548.00
2022-12-29T07:33:24.595Z,547.00
2022-12-29T07:34:24.545Z,545.00
2022-12-29T07:35:24.549Z,548.00
2022-12-29T07:36:28.033Z,549.00
2022-12-29T07:37:24.444Z,547.00
2022-12-29T07:38:24.390Z,550.00
2022-12-29T07:39:24.364Z,551.00
2022-12-29T07:40:24.321Z,550.00
2022-12-29T07:41:24.285Z,551.00
2022-12-29T07:42:24.248Z,551.00
2022-12-29T07:43:24.212Z,549.00
2022-12-29T07:44:24.218Z,549.00
2022-12-29T07:45:24.172Z,550.00
2022-12-29T07:46:56.277Z,551.00
2022-12-29T07:47:24.059Z,551.00
2022-12-29T07:48:24.023Z,551.00
2022-12-29T07:49:24.026Z,550.00
2022-12-29T07:50:23.955Z,553.00
2022-12-29T07:51:23.958Z,554.00
2022-12-29T07:52:23.903Z,555.00
2022-12-29T07:53:23.846Z,554.00
2022-12-29T07:54:24.014Z,552.00
2022-12-29T07:55:23.785Z,552.00
2022-12-29T07:56:23.747Z,551.00
2022-12-29T07:57:29.643Z,551.00
2022-12-29T07:58:23.688Z,548.00
2022-12-29T07:59:23.660Z,547.00
2022-12-29T08:00:23.620Z,548.00
2022-12-29T08:01:23.713Z,550.00
2022-12-29T08:02:23.663Z,549.00
2022-12-29T08:03:23.557Z,550.00
2022-12-29T08:04:23.511Z,549.00
2022-12-29T08:05:23.465Z,553.00
2022-12-29T08:06:23.431Z,555.00
2022-12-29T08:07:23.437Z,555.00
2022-12-29T08:08:23.363Z,553.00
2022-12-29T08:09:24.371Z,553.00
2022-12-29T08:10:23.298Z,550.00
2022-12-29T08:11:23.263Z,551.00
2022-12-29T08:12:23.244Z,551.00
2022-12-29T08:13:23.204Z,552.00
2022-12-29T08:14:23.213Z,555.00
2022-12-29T08:15:28.622Z,554.00
2022-12-29T08:16:23.155Z,554.00
2022-12-29T08:17:23.088Z,553.00
2022-12-29T08:18:23.060Z,552.00
2022-12-29T08:19:23.034Z,553.00
2022-12-29T08:20:23.005Z,554.00
2022-12-29T08:21:22.985Z,555.00
2022-12-29T08:22:22.946Z,556.00
2022-12-29T08:23:22.947Z,556.00
2022-12-29T08:24:22.902Z,556.00
2022-12-29T08:25:22.884Z,555.00
2022-12-29T08:26:22.892Z,555.00
2022-12-29T08:27:22.825Z,557.00
2022-12-29T08:28:22.788Z,558.00
2022-12-29T08:29:22.762Z,557.00
2022-12-29T08:30:22.729Z,557.00
2022-12-29T08:31:22.786Z,554.00
2022-12-29T08:32:22.669Z,553.00
2022-12-29T08:33:22.648Z,552.00
2022-12-29T08:34:22.610Z,553.00
2022-12-29T08:35:22.581Z,554.00
2022-12-29T08:36:22.549Z,557.00
2022-12-29T08:37:26.277Z,557.00
2022-12-29T08:38:22.487Z,558.00
2022-12-29T08:39:22.481Z,558.00
2022-12-29T08:40:22.435Z,560.00
2022-12-29T08:41:22.401Z,561.00
2022-12-29T08:42:22.368Z,562.00
2022-12-29T08:43:22.337Z,559.00
2022-12-29T08:44:22.309Z,557.00
2022-12-29T08:45:22.292Z,558.00
2022-12-29T08:46:22.328Z,560.00
2022-12-29T08:47:22.216Z,560.00
2022-12-29T08:48:22.194Z,555.00
2022-12-29T08:49:22.168Z,554.00
2022-12-29T08:50:22.143Z,555.00
2022-12-29T08:51:24.708Z,554.00
2022-12-29T08:52:22.072Z,554.00
2022-12-29T08:53:22.052Z,554.00
2022-12-29T08:54:22.026Z,554.00
2022-12-29T08:55:22.046Z,558.00
2022-12-29T08:56:21.989Z,558.00
2022-12-29T08:57:21.940Z,560.00
2022-12-29T08:58:21.916Z,558.00
2022-12-29T08:59:21.880Z,555.00
2022-12-29T09:00:21.879Z,551.00
2022-12-29T09:01:21.958Z,550.00
2022-12-29T09:02:24.815Z,548.00
2022-12-29T09:03:45.550Z,551.00
2022-12-29T09:04:21.967Z,552.00
2022-12-29T09:05:21.742Z,553.00
2022-12-29T09:06:21.682Z,554.00
2022-12-29T09:07:21.649Z,557.00
2022-12-29T09:08:25.607Z,559.00
2022-12-29T09:09:21.566Z,558.00
2022-12-29T09:10:21.533Z,556.00
2022-12-29T09:11:21.526Z,555.00
2022-12-29T09:12:21.474Z,552.00
2022-12-29T09:13:21.439Z,552.00
2022-12-29T09:14:21.405Z,551.00
2022-12-29T09:15:21.364Z,552.00
2022-12-29T09:16:21.438Z,551.00
2022-12-29T09:17:21.307Z,551.00
2022-12-29T09:18:21.804Z,548.00
2022-12-29T09:19:21.237Z,549.00
2022-12-29T09:20:21.230Z,549.00
2022-12-29T09:21:21.209Z,546.00
2022-12-29T09:22:21.148Z,545.00
2022-12-29T09:23:21.104Z,544.00
2022-12-29T09:24:21.070Z,543.00
2022-12-29T09:25:21.031Z,540.00
2022-12-29T09:26:21.004Z,542.00
2022-12-29T09:27:20.995Z,541.00
2022-12-29T09:28:20.937Z,541.00
2022-12-29T09:29:20.901Z,543.00
2022-12-29T09:30:20.878Z,542.00
2022-12-29T09:31:20.950Z,540.00
2022-12-29T09:32:22.931Z,543.00
2022-12-29T09:33:20.768Z,544.00
2022-12-29T09:34:20.753Z,543.00
2022-12-29T09:35:20.723Z,544.00
2022-12-29T09:36:20.688Z,544.00
2022-12-29T09:37:20.645Z,544.00
2022-12-29T09:38:20.624Z,542.00
2022-12-29T09:39:20.582Z,542.00
2022-12-29T09:40:20.550Z,541.00
2022-12-29T09:41:20.515Z,542.00
2022-12-29T09:42:20.481Z,544.00
2022-12-29T09:43:20.475Z,546.00
2022-12-29T09:44:20.413Z,549.00
2022-12-29T09:45:20.368Z,549.00
2022-12-29T09:46:20.395Z,548.00
2022-12-29T09:47:20.300Z,546.00
2022-12-29T09:48:20.289Z,546.00
2022-12-29T09:49:20.242Z,545.00
2022-12-29T09:50:20.245Z,546.00
2022-12-29T09:51:20.165Z,545.00
2022-12-29T09:52:20.130Z,544.00
2022-12-29T09:53:20.101Z,545.00
2022-12-29T09:54:20.075Z,545.00
2022-12-29T09:55:20.041Z,545.00
2022-12-29T09:56:20.083Z,546.00
2022-12-29T09:57:19.964Z,546.00
2022-12-29T09:58:19.923Z,550.00
2022-12-29T09:59:19.912Z,547.00
2022-12-29T10:00:20.007Z,547.00
2022-12-29T10:01:19.948Z,547.00
2022-12-29T10:02:19.949Z,548.00
2022-12-29T10:03:19.856Z,546.00
2022-12-29T10:04:19.715Z,546.00
2022-12-29T10:05:19.689Z,544.00
2022-12-29T10:06:19.731Z,544.00
2022-12-29T10:07:29.622Z,543.00
2022-12-29T10:08:19.565Z,542.00
2022-12-29T10:09:19.524Z,541.00
2022-12-29T10:10:19.615Z,543.00
2022-12-29T10:11:19.448Z,545.00
2022-12-29T10:12:19.419Z,546.00
2022-12-29T10:13:19.378Z,545.00
2022-12-29T10:14:19.334Z,544.00
2022-12-29T10:15:19.326Z,545.00
2022-12-29T10:16:19.391Z,547.00
2022-12-29T10:17:19.224Z,548.00
2022-12-29T10:18:19.186Z,548.00
2022-12-29T10:19:19.153Z,549.00
2022-12-29T10:20:19.182Z,550.00
2022-12-29T10:21:19.093Z,551.00
2022-12-29T10:22:19.053Z,552.00
2022-12-29T10:23:19.013Z,549.00
2022-12-29T10:24:19.007Z,548.00
2022-12-29T10:25:18.953Z,548.00
2022-12-29T10:26:18.920Z,548.00
2022-12-29T10:27:18.928Z,548.00
2022-12-29T10:28:18.851Z,547.00
2022-12-29T10:29:18.822Z,546.00
2022-12-29T10:30:18.877Z,544.00
2022-12-29T10:31:18.808Z,542.00
2022-12-29T10:32:18.723Z,540.00
2022-12-29T10:33:18.688Z,542.00
2022-12-29T10:34:18.656Z,544.00
2022-12-29T10:35:18.650Z,544.00
2022-12-29T10:36:18.602Z,545.00
2022-12-29T10:37:18.579Z,544.00
2022-12-29T10:38:18.544Z,542.00
2022-12-29T10:39:18.522Z,545.00
2022-12-29T10:40:18.484Z,546.00
2022-12-29T10:41:18.445Z,546.00
2022-12-29T10:42:18.401Z,547.00
2022-12-29T10:43:21.230Z,547.00
2022-12-29T10:44:18.335Z,545.00
2022-12-29T10:45:18.298Z,547.00
2022-12-29T10:46:18.323Z,552.00
2022-12-29T10:47:18.248Z,550.00
2022-12-29T10:48:18.191Z,548.00
2022-12-29T10:49:21.809Z,547.00
2022-12-29T10:50:18.179Z,546.00
2022-12-29T10:51:18.091Z,543.00
2022-12-29T10:52:18.062Z,542.00
2022-12-29T10:53:18.017Z,544.00
2022-12-29T10:54:17.997Z,545.00
2022-12-29T10:55:17.956Z,546.00
2022-12-29T10:56:17.929Z,545.00
2022-12-29T10:57:17.881Z,547.00
2022-12-29T10:58:17.856Z,548.00
2022-12-29T10:59:17.810Z,547.00
2022-12-29T11:00:17.956Z,547.00
2022-12-29T11:01:17.986Z,547.00
2022-12-29T11:02:17.856Z,546.00
2022-12-29T11:03:17.847Z,547.00
2022-12-29T11:04:17.638Z,546.00
2022-12-29T11:05:17.613Z,545.00
2022-12-29T11:06:17.561Z,546.00
2022-12-29T11:07:18.933Z,544.00
2022-12-29T11:08:17.484Z,542.00
2022-12-29T11:09:17.451Z,542.00
2022-12-29T11:10:17.476Z,543.00
2022-12-29T11:11:17.385Z,539.00
2022-12-29T11:12:18.082Z,540.00
2022-12-29T11:13:17.308Z,538.00
2022-12-29T11:14:17.287Z,540.00
2022-12-29T11:15:17.233Z,539.00
2022-12-29T11:16:17.273Z,541.00
2022-12-29T11:17:17.182Z,541.00
2022-12-29T11:18:17.135Z,539.00
2022-12-29T11:19:17.126Z,539.00
2022-12-29T11:20:17.086Z,539.00
2022-12-29T11:21:17.028Z,538.00
2022-12-29T11:22:16.992Z,538.00
2022-12-29T11:23:16.955Z,538.00
2022-12-29T11:24:16.917Z,537.00
2022-12-29T11:25:16.910Z,537.00
2022-12-29T11:26:16.854Z,539.00
2022-12-29T11:27:16.819Z,540.00
2022-12-29T11:28:16.775Z,541.00
2022-12-29T11:29:16.746Z,542.00
2022-12-29T11:30:16.751Z,545.00
2022-12-29T11:31:16.752Z,544.00
2022-12-29T11:32:16.661Z,545.00
2022-12-29T11:33:16.587Z,545.00
2022-12-29T11:34:16.549Z,550.00
2022-12-29T11:35:16.540Z,551.00
2022-12-29T11:36:16.474Z,554.00
2022-12-29T11:37:16.433Z,551.00
2022-12-29T11:38:16.399Z,551.00
2022-12-29T11:39:16.365Z,550.00
2022-12-29T11:40:16.351Z,550.00
2022-12-29T11:41:16.287Z,550.00
2022-12-29T11:42:16.246Z,553.00
2022-12-29T11:43:16.206Z,553.00
2022-12-29T11:44:16.182Z,552.00
2022-12-29T11:45:16.146Z,554.00
2022-12-29T11:46:16.169Z,553.00
2022-12-29T11:47:16.055Z,550.00
2022-12-29T11:48:16.024Z,549.00
2022-12-29T11:49:15.991Z,547.00
2022-12-29T11:50:15.960Z,545.00
2022-12-29T11:51:20.486Z,545.00
2022-12-29T11:52:15.873Z,544.00
2022-12-29T11:53:15.931Z,545.00
2022-12-29T11:54:15.806Z,547.00
2022-12-29T11:55:15.823Z,546.00
2022-12-29T11:56:15.728Z,547.00
2022-12-29T11:57:15.746Z,547.00
2022-12-29T11:58:15.714Z,548.00
2022-12-29T11:59:15.619Z,549.00
2022-12-29T12:00:15.816Z,551.00
2022-12-29T12:01:15.551Z,553.00
2022-12-29T12:02:15.637Z,552.00
2022-12-29T12:03:15.595Z,550.00
2022-12-29T12:04:15.510Z,549.00
2022-12-29T12:05:15.410Z,550.00
2022-12-29T12:06:15.378Z,550.00
2022-12-29T12:07:15.388Z,551.00
2022-12-29T12:08:20.705Z,547.00
2022-12-29T12:09:15.305Z,546.00
2022-12-29T12:10:15.252Z,544.00
2022-12-29T12:11:15.212Z,542.00
2022-12-29T12:12:15.198Z,542.00
2022-12-29T12:13:15.146Z,541.00
2022-12-29T12:14:15.133Z,540.00
2022-12-29T12:15:15.107Z,540.00
2022-12-29T12:16:15.123Z,542.00
2022-12-29T12:17:15.023Z,543.00
2022-12-29T12:18:14.968Z,542.00
2022-12-29T12:19:14.936Z,544.00
2022-12-29T12:20:14.900Z,540.00
2022-12-29T12:21:14.874Z,540.00
2022-12-29T12:22:14.832Z,538.00
2022-12-29T12:23:14.825Z,541.00
2022-12-29T12:24:14.770Z,542.00
2022-12-29T12:25:14.724Z,542.00
2022-12-29T12:26:14.691Z,543.00
2022-12-29T12:27:14.652Z,543.00
2022-12-29T12:28:14.625Z,543.00
2022-12-29T12:29:14.617Z,541.00
2022-12-29T12:30:14.581Z,541.00
2022-12-29T12:31:15.155Z,542.00
2022-12-29T12:32:14.485Z,540.00
2022-12-29T12:33:14.450Z,542.00
2022-12-29T12:34:14.413Z,543.00
2022-12-29T12:35:19.743Z,545.00
2022-12-29T12:36:14.347Z,544.00
2022-12-29T12:37:14.304Z,544.00
2022-12-29T12:38:14.269Z,543.00
2022-12-29T12:39:14.262Z,540.00
2022-12-29T12:40:14.196Z,541.00
2022-12-29T12:41:19.736Z,542.00
2022-12-29T12:42:14.126Z,542.00
2022-12-29T12:43:14.089Z,543.00
2022-12-29T12:44:14.068Z,543.00
2022-12-29T12:45:14.010Z,543.00
2022-12-29T12:46:14.026Z,541.00
2022-12-29T12:47:13.945Z,542.00
2022-12-29T12:48:13.893Z,543.00
2022-12-29T12:49:13.910Z,544.00
2022-12-29T12:50:13.818Z,544.00
2022-12-29T12:51:13.780Z,544.00
2022-12-29T12:52:13.731Z,542.00
2022-12-29T12:53:13.695Z,542.00
2022-12-29T12:54:13.680Z,540.00
2022-12-29T12:55:13.686Z,538.00
2022-12-29T12:56:13.578Z,539.00
2022-12-29T12:57:13.553Z,538.00
2022-12-29T12:58:13.507Z,539.00
2022-12-29T12:59:13.470Z,538.00
2022-12-29T13:00:13.424Z,538.00
2022-12-29T13:01:13.486Z,539.00
2022-12-29T13:02:13.554Z,540.00
2022-12-29T13:03:13.401Z,540.00
2022-12-29T13:04:13.286Z,539.00
2022-12-29T13:05:13.252Z,539.00
2022-12-29T13:06:13.210Z,541.00
2022-12-29T13:07:13.167Z,540.00
2022-12-29T13:08:13.125Z,540.00
2022-12-29T13:09:13.107Z,539.00
2022-12-29T13:10:13.051Z,539.00
2022-12-29T13:11:13.047Z,540.00
2022-12-29T13:12:12.971Z,540.00
2022-12-29T13:13:12.952Z,540.00
2022-12-29T13:14:12.886Z,541.00
2022-12-29T13:15:12.847Z,542.00
2022-12-29T13:16:14.617Z,543.00
2022-12-29T13:17:12.769Z,544.00
2022-12-29T13:18:12.721Z,544.00
2022-12-29T13:19:12.674Z,548.00
2022-12-29T13:20:12.649Z,550.00
2022-12-29T13:21:12.611Z,549.00
2022-12-29T13:22:12.568Z,547.00
2022-12-29T13:23:12.524Z,547.00